sensor_id;sensor_type;location;lat;lon;timestamp;pressure;altitude;pressure_sealevel;temperature;humidity
47753;BME280;2038;51.728;6.674;2023-05-23T00:00:56;101041.25;;;16.67;100.00
47753;BME280;2038;51.728;6.674;2023-05-23T00:03:25;101033.31;;;16.62;100.00
47753;BME280;2038;51.728;6.674;2023-05-23T00:05:52;101040.16;;;16.62;100.00
47753;BME280;2038;51.728;6.674;2023-05-23T00:08:18;101040.75;;;16.56;100.00
47753;BME280;2038;51.728;6.674;2023-05-23T00:10:45;101030.22;;;16.52;100.00
47753;BME280;2038;51.728;6.674;2023-05-23T00:13:11;101037.88;;;16.50;100.00
47753;BME280;2038;51.728;6.674;2023-05-23T00:15:47;101030.69;;;16.43;100.00
47753;BME280;2038;51.728;6.674;2023-05-23T00:18:13;101030.91;;;16.48;100.00
47753;BME280;2038;51.728;6.674;2023-05-23T00:20:42;101030.09;;;16.49;100.00
47753;BME280;2038;51.728;6.674;2023-05-23T00:23:09;101028.25;;;16.46;100.00
47753;BME280;2038;51.728;6.674;2023-05-23T00:25:38;101034.50;;;16.51;100.00
47753;BME280;2038;51.728;6.674;2023-05-23T00:28:06;101028.91;;;16.42;100.00
47753;BME280;2038;51.728;6.674;2023-05-23T00:30:32;101028.69;;;16.37;100.00
47753;BME280;2038;51.728;6.674;2023-05-23T00:32:59;101033.72;;;16.34;100.00
47753;BME280;2038;51.728;6.674;2023-05-23T00:35:26;101033.03;;;16.38;100.00
47753;BME280;2038;51.728;6.674;2023-05-23T00:37:52;101033.25;;;16.43;100.00
47753;BME280;2038;51.728;6.674;2023-05-23T00:40:19;101031.00;;;16.31;100.00
47753;BME280;2038;51.728;6.674;2023-05-23T00:42:46;101029.31;;;16.32;100.00
47753;BME280;2038;51.728;6.674;2023-05-23T00:45:12;101029.59;;;16.38;100.00
47753;BME280;2038;51.728;6.674;2023-05-23T00:47:40;101031.25;;;16.37;100.00
47753;BME280;2038;51.728;6.674;2023-05-23T00:50:10;101031.63;;;16.45;100.00
47753;BME280;2038;51.728;6.674;2023-05-23T00:52:40;101031.88;;;16.32;100.00
47753;BME280;2038;51.728;6.674;2023-05-23T00:55:08;101032.69;;;16.31;100.00
47753;BME280;2038;51.728;6.674;2023-05-23T00:57:36;101032.47;;;16.26;100.00
47753;BME280;2038;51.728;6.674;2023-05-23T01:00:15;101036.25;;;16.52;100.00
47753;BME280;2038;51.728;6.674;2023-05-23T01:02:47;101040.75;;;16.56;100.00
47753;BME280;2038;51.728;6.674;2023-05-23T01:05:17;101037.28;;;16.56;100.00
47753;BME280;2038;51.728;6.674;2023-05-23T01:07:44;101034.19;;;16.45;100.00
47753;BME280;2038;51.728;6.674;2023-05-23T01:10:12;101042.13;;;16.50;100.00
47753;BME280;2038;51.728;6.674;2023-05-23T01:12:51;101036.75;;;16.45;100.00
47753;BME280;2038;51.728;6.674;2023-05-23T01:18:54;101050.47;;;16.44;100.00
47753;BME280;2038;51.728;6.674;2023-05-23T01:21:26;101048.03;;;16.47;100.00
47753;BME280;2038;51.728;6.674;2023-05-23T01:29:31;101039.41;;;16.47;100.00
47753;BME280;2038;51.728;6.674;2023-05-23T01:32:06;101044.34;;;16.42;100.00
47753;BME280;2038;51.728;6.674;2023-05-23T01:34:36;101040.22;;;16.46;100.00
47753;BME280;2038;51.728;6.674;2023-05-23T01:37:10;101051.53;;;16.49;100.00
47753;BME280;2038;51.728;6.674;2023-05-23T01:39:39;101046.56;;;16.52;100.00
47753;BME280;2038;51.728;6.674;2023-05-23T01:42:06;101045.38;;;16.46;100.00
47753;BME280;2038;51.728;6.674;2023-05-23T01:44:34;101051.75;;;16.54;100.00
47753;BME280;2038;51.728;6.674;2023-05-23T01:47:03;101057.44;;;16.47;100.00
47753;BME280;2038;51.728;6.674;2023-05-23T01:49:33;101049.84;;;16.50;100.00
47753;BME280;2038;51.728;6.674;2023-05-23T01:52:02;101060.22;;;16.51;100.00
47753;BME280;2038;51.728;6.674;2023-05-23T01:54:30;101061.16;;;16.53;100.00
47753;BME280;2038;51.728;6.674;2023-05-23T01:57:00;101069.63;;;16.51;100.00
47753;BME280;2038;51.728;6.674;2023-05-23T01:59:27;101063.59;;;16.50;100.00
47753;BME280;2038;51.728;6.674;2023-05-23T02:01:54;101068.25;;;16.57;100.00
47753;BME280;2038;51.728;6.674;2023-05-23T02:04:21;101069.84;;;16.55;100.00
47753;BME280;2038;51.728;6.674;2023-05-23T02:06:47;101055.25;;;16.36;100.00
47753;BME280;2038;51.728;6.674;2023-05-23T02:09:14;101063.03;;;16.38;100.00
47753;BME280;2038;51.728;6.674;2023-05-23T02:11:40;101062.00;;;16.34;100.00
47753;BME280;2038;51.728;6.674;2023-05-23T02:14:08;101067.22;;;16.36;100.00
47753;BME280;2038;51.728;6.674;2023-05-23T02:16:34;101072.72;;;16.44;100.00
47753;BME280;2038;51.728;6.674;2023-05-23T02:19:01;101067.38;;;16.39;100.00
47753;BME280;2038;51.728;6.674;2023-05-23T02:21:28;101074.06;;;16.35;100.00
47753;BME280;2038;51.728;6.674;2023-05-23T02:23:54;101076.28;;;16.28;100.00
47753;BME280;2038;51.728;6.674;2023-05-23T02:26:20;101070.38;;;16.30;100.00
47753;BME280;2038;51.728;6.674;2023-05-23T02:28:46;101072.16;;;16.31;100.00
47753;BME280;2038;51.728;6.674;2023-05-23T02:31:13;101069.81;;;16.18;100.00
47753;BME280;2038;51.728;6.674;2023-05-23T02:33:39;101067.22;;;16.18;100.00
47753;BME280;2038;51.728;6.674;2023-05-23T02:36:05;101070.81;;;16.22;100.00
47753;BME280;2038;51.728;6.674;2023-05-23T02:38:31;101074.81;;;16.15;100.00
47753;BME280;2038;51.728;6.674;2023-05-23T02:40:57;101071.44;;;16.16;100.00
47753;BME280;2038;51.728;6.674;2023-05-23T02:43:24;101073.16;;;16.17;100.00
47753;BME280;2038;51.728;6.674;2023-05-23T02:45:51;101080.94;;;16.01;100.00
47753;BME280;2038;51.728;6.674;2023-05-23T02:48:17;101086.63;;;16.12;100.00
47753;BME280;2038;51.728;6.674;2023-05-23T02:50:43;101077.81;;;16.07;100.00
47753;BME280;2038;51.728;6.674;2023-05-23T02:53:10;101088.19;;;16.08;100.00
47753;BME280;2038;51.728;6.674;2023-05-23T02:55:36;101085.28;;;16.02;100.00
47753;BME280;2038;51.728;6.674;2023-05-23T02:58:03;101101.84;;;16.07;100.00
47753;BME280;2038;51.728;6.674;2023-05-23T03:00:30;101096.78;;;16.09;100.00
47753;BME280;2038;51.728;6.674;2023-05-23T03:02:57;101084.59;;;16.05;100.00
47753;BME280;2038;51.728;6.674;2023-05-23T03:05:23;101098.28;;;16.05;100.00
47753;BME280;2038;51.728;6.674;2023-05-23T03:07:50;101102.72;;;16.08;100.00
47753;BME280;2038;51.728;6.674;2023-05-23T03:10:17;101096.03;;;16.11;100.00
47753;BME280;2038;51.728;6.674;2023-05-23T03:12:43;101095.94;;;16.10;100.00
47753;BME280;2038;51.728;6.674;2023-05-23T03:15:10;101105.34;;;16.09;100.00
47753;BME280;2038;51.728;6.674;2023-05-23T03:17:36;101111.47;;;16.11;100.00
47753;BME280;2038;51.728;6.674;2023-05-23T03:20:03;101119.09;;;16.10;100.00
47753;BME280;2038;51.728;6.674;2023-05-23T03:22:30;101109.63;;;16.09;100.00
47753;BME280;2038;51.728;6.674;2023-05-23T03:24:56;101113.81;;;16.07;100.00
47753;BME280;2038;51.728;6.674;2023-05-23T03:27:23;101114.56;;;16.04;100.00
47753;BME280;2038;51.728;6.674;2023-05-23T03:29:49;101124.19;;;16.08;100.00
47753;BME280;2038;51.728;6.674;2023-05-23T03:32:16;101126.75;;;16.08;100.00
47753;BME280;2038;51.728;6.674;2023-05-23T03:34:42;101117.78;;;16.00;100.00
47753;BME280;2038;51.728;6.674;2023-05-23T03:37:08;101120.19;;;15.97;100.00
47753;BME280;2038;51.728;6.674;2023-05-23T03:39:34;101124.66;;;16.01;100.00
47753;BME280;2038;51.728;6.674;2023-05-23T03:42:00;101124.75;;;16.03;100.00
47753;BME280;2038;51.728;6.674;2023-05-23T03:44:27;101133.22;;;16.00;100.00
47753;BME280;2038;51.728;6.674;2023-05-23T03:46:53;101127.75;;;15.94;100.00
47753;BME280;2038;51.728;6.674;2023-05-23T03:49:19;101130.41;;;15.96;100.00
47753;BME280;2038;51.728;6.674;2023-05-23T03:51:45;101128.78;;;15.98;100.00
47753;BME280;2038;51.728;6.674;2023-05-23T03:54:12;101131.28;;;15.96;100.00
47753;BME280;2038;51.728;6.674;2023-05-23T03:56:38;101128.25;;;15.87;100.00
47753;BME280;2038;51.728;6.674;2023-05-23T03:59:04;101130.91;;;15.88;100.00
47753;BME280;2038;51.728;6.674;2023-05-23T04:01:30;101140.22;;;15.86;100.00
47753;BME280;2038;51.728;6.674;2023-05-23T04:03:56;101143.44;;;15.82;100.00
47753;BME280;2038;51.728;6.674;2023-05-23T04:06:25;101144.63;;;15.89;100.00
47753;BME280;2038;51.728;6.674;2023-05-23T04:08:52;101150.75;;;15.75;100.00
47753;BME280;2038;51.728;6.674;2023-05-23T04:11:18;101152.22;;;15.70;100.00
47753;BME280;2038;51.728;6.674;2023-05-23T04:13:44;101153.09;;;15.70;100.00
47753;BME280;2038;51.728;6.674;2023-05-23T04:16:11;101151.09;;;15.65;100.00
47753;BME280;2038;51.728;6.674;2023-05-23T04:18:38;101154.47;;;15.64;100.00
47753;BME280;2038;51.728;6.674;2023-05-23T04:21:04;101159.09;;;15.87;100.00
47753;BME280;2038;51.728;6.674;2023-05-23T04:23:31;101152.84;;;15.82;100.00
47753;BME280;2038;51.728;6.674;2023-05-23T04:25:57;101160.16;;;15.74;100.00
47753;BME280;2038;51.728;6.674;2023-05-23T04:28:26;101162.16;;;15.80;100.00
47753;BME280;2038;51.728;6.674;2023-05-23T04:30:54;101165.38;;;15.92;100.00
47753;BME280;2038;51.728;6.674;2023-05-23T04:33:21;101161.09;;;15.93;100.00
47753;BME280;2038;51.728;6.674;2023-05-23T04:35:47;101169.22;;;15.84;100.00
47753;BME280;2038;51.728;6.674;2023-05-23T04:38:14;101169.03;;;15.97;100.00
47753;BME280;2038;51.728;6.674;2023-05-23T04:40:40;101167.94;;;16.10;100.00
47753;BME280;2038;51.728;6.674;2023-05-23T04:43:06;101171.91;;;16.03;100.00
47753;BME280;2038;51.728;6.674;2023-05-23T04:45:34;101172.66;;;16.18;100.00
47753;BME280;2038;51.728;6.674;2023-05-23T04:48:02;101174.34;;;16.18;100.00
47753;BME280;2038;51.728;6.674;2023-05-23T04:50:28;101185.56;;;16.02;100.00
47753;BME280;2038;51.728;6.674;2023-05-23T04:52:57;101174.03;;;15.94;100.00
47753;BME280;2038;51.728;6.674;2023-05-23T04:55:24;101184.53;;;15.99;100.00
47753;BME280;2038;51.728;6.674;2023-05-23T04:57:50;101182.66;;;16.12;100.00
47753;BME280;2038;51.728;6.674;2023-05-23T05:00:17;101181.78;;;16.12;100.00
47753;BME280;2038;51.728;6.674;2023-05-23T05:02:43;101191.28;;;16.13;100.00
47753;BME280;2038;51.728;6.674;2023-05-23T05:05:09;101186.47;;;16.03;100.00
47753;BME280;2038;51.728;6.674;2023-05-23T05:07:36;101190.03;;;15.88;100.00
47753;BME280;2038;51.728;6.674;2023-05-23T05:10:02;101187.84;;;15.96;100.00
47753;BME280;2038;51.728;6.674;2023-05-23T05:12:29;101193.03;;;15.98;100.00
47753;BME280;2038;51.728;6.674;2023-05-23T05:14:55;101199.81;;;15.96;100.00
47753;BME280;2038;51.728;6.674;2023-05-23T05:17:21;101208.56;;;15.99;100.00
47753;BME280;2038;51.728;6.674;2023-05-23T05:19:47;101202.88;;;16.05;100.00
47753;BME280;2038;51.728;6.674;2023-05-23T05:22:13;101212.88;;;16.16;100.00
47753;BME280;2038;51.728;6.674;2023-05-23T05:24:40;101201.97;;;16.04;100.00
47753;BME280;2038;51.728;6.674;2023-05-23T05:27:06;101216.53;;;16.21;100.00
47753;BME280;2038;51.728;6.674;2023-05-23T05:29:34;101218.22;;;16.21;100.00
47753;BME280;2038;51.728;6.674;2023-05-23T05:32:01;101223.06;;;16.15;100.00
47753;BME280;2038;51.728;6.674;2023-05-23T05:34:28;101220.88;;;16.22;100.00
47753;BME280;2038;51.728;6.674;2023-05-23T05:36:54;101223.91;;;16.31;100.00
47753;BME280;2038;51.728;6.674;2023-05-23T05:39:23;101228.28;;;16.32;100.00
47753;BME280;2038;51.728;6.674;2023-05-23T05:41:51;101235.84;;;16.47;100.00
47753;BME280;2038;51.728;6.674;2023-05-23T05:44:17;101230.78;;;16.49;100.00
47753;BME280;2038;51.728;6.674;2023-05-23T05:46:43;101232.63;;;16.51;100.00
47753;BME280;2038;51.728;6.674;2023-05-23T05:49:09;101235.94;;;16.49;100.00
47753;BME280;2038;51.728;6.674;2023-05-23T05:51:36;101238.34;;;16.46;100.00
47753;BME280;2038;51.728;6.674;2023-05-23T05:54:02;101254.53;;;16.43;100.00
47753;BME280;2038;51.728;6.674;2023-05-23T05:56:28;101245.03;;;16.42;100.00
47753;BME280;2038;51.728;6.674;2023-05-23T05:58:54;101247.97;;;16.32;100.00
47753;BME280;2038;51.728;6.674;2023-05-23T06:01:21;101250.22;;;16.26;100.00
47753;BME280;2038;51.728;6.674;2023-05-23T06:03:48;101251.09;;;16.26;100.00
47753;BME280;2038;51.728;6.674;2023-05-23T06:06:14;101249.19;;;16.06;100.00
47753;BME280;2038;51.728;6.674;2023-05-23T06:08:41;101255.38;;;16.10;100.00
47753;BME280;2038;51.728;6.674;2023-05-23T06:11:08;101266.06;;;16.17;100.00
47753;BME280;2038;51.728;6.674;2023-05-23T06:13:34;101263.44;;;16.16;100.00
47753;BME280;2038;51.728;6.674;2023-05-23T06:16:00;101267.81;;;16.18;100.00
47753;BME280;2038;51.728;6.674;2023-05-23T06:18:26;101270.91;;;16.11;100.00
47753;BME280;2038;51.728;6.674;2023-05-23T06:20:53;101264.13;;;16.13;100.00
47753;BME280;2038;51.728;6.674;2023-05-23T06:23:19;101268.31;;;16.11;100.00
47753;BME280;2038;51.728;6.674;2023-05-23T06:25:45;101267.69;;;16.15;100.00
47753;BME280;2038;51.728;6.674;2023-05-23T06:28:11;101268.72;;;16.19;100.00
47753;BME280;2038;51.728;6.674;2023-05-23T06:30:38;101279.38;;;16.26;100.00
47753;BME280;2038;51.728;6.674;2023-05-23T06:33:04;101278.84;;;16.16;100.00
47753;BME280;2038;51.728;6.674;2023-05-23T06:35:30;101279.41;;;16.10;100.00
47753;BME280;2038;51.728;6.674;2023-05-23T06:37:57;101285.84;;;16.18;100.00
47753;BME280;2038;51.728;6.674;2023-05-23T06:40:23;101288.66;;;16.07;100.00
47753;BME280;2038;51.728;6.674;2023-05-23T06:42:49;101285.78;;;16.01;100.00
47753;BME280;2038;51.728;6.674;2023-05-23T06:45:15;101288.81;;;15.93;100.00
47753;BME280;2038;51.728;6.674;2023-05-23T06:47:42;101295.59;;;15.91;100.00
47753;BME280;2038;51.728;6.674;2023-05-23T06:50:13;101294.59;;;15.89;100.00
47753;BME280;2038;51.728;6.674;2023-05-23T06:52:39;101293.97;;;15.93;100.00
47753;BME280;2038;51.728;6.674;2023-05-23T06:55:07;101310.66;;;15.85;100.00
47753;BME280;2038;51.728;6.674;2023-05-23T06:57:34;101316.44;;;15.81;100.00
47753;BME280;2038;51.728;6.674;2023-05-23T07:00:00;101315.97;;;15.72;100.00
47753;BME280;2038;51.728;6.674;2023-05-23T07:02:26;101326.81;;;15.67;100.00
47753;BME280;2038;51.728;6.674;2023-05-23T07:04:53;101330.41;;;15.70;100.00
47753;BME280;2038;51.728;6.674;2023-05-23T07:07:19;101327.59;;;15.66;100.00
47753;BME280;2038;51.728;6.674;2023-05-23T07:09:45;101335.31;;;15.66;100.00
47753;BME280;2038;51.728;6.674;2023-05-23T07:12:12;101331.59;;;15.61;100.00
47753;BME280;2038;51.728;6.674;2023-05-23T07:14:38;101336.94;;;15.64;100.00
47753;BME280;2038;51.728;6.674;2023-05-23T07:17:05;101335.31;;;15.66;100.00
47753;BME280;2038;51.728;6.674;2023-05-23T07:19:31;101335.06;;;15.61;100.00
47753;BME280;2038;51.728;6.674;2023-05-23T07:21:57;101346.31;;;15.63;100.00
47753;BME280;2038;51.728;6.674;2023-05-23T07:24:24;101348.03;;;15.48;100.00
47753;BME280;2038;51.728;6.674;2023-05-23T07:26:50;101348.66;;;15.44;100.00
47753;BME280;2038;51.728;6.674;2023-05-23T07:29:16;101353.38;;;15.36;100.00
47753;BME280;2038;51.728;6.674;2023-05-23T07:31:43;101356.53;;;15.47;100.00
47753;BME280;2038;51.728;6.674;2023-05-23T07:34:09;101365.66;;;15.42;100.00
47753;BME280;2038;51.728;6.674;2023-05-23T07:36:35;101361.34;;;15.26;100.00
47753;BME280;2038;51.728;6.674;2023-05-23T07:39:02;101356.09;;;15.25;100.00
47753;BME280;2038;51.728;6.674;2023-05-23T07:41:29;101356.50;;;15.16;100.00
47753;BME280;2038;51.728;6.674;2023-05-23T07:43:55;101358.97;;;15.15;100.00
47753;BME280;2038;51.728;6.674;2023-05-23T07:46:21;101365.00;;;15.15;100.00
47753;BME280;2038;51.728;6.674;2023-05-23T07:48:48;101368.34;;;15.14;100.00
47753;BME280;2038;51.728;6.674;2023-05-23T07:51:14;101379.00;;;15.20;100.00
47753;BME280;2038;51.728;6.674;2023-05-23T07:53:46;101387.75;;;15.24;100.00
47753;BME280;2038;51.728;6.674;2023-05-23T07:56:12;101383.84;;;15.16;100.00
47753;BME280;2038;51.728;6.674;2023-05-23T07:58:38;101381.91;;;15.12;100.00
47753;BME280;2038;51.728;6.674;2023-05-23T08:01:05;101382.44;;;15.06;100.00
47753;BME280;2038;51.728;6.674;2023-05-23T08:03:31;101393.59;;;14.92;100.00
47753;BME280;2038;51.728;6.674;2023-05-23T08:05:57;101394.56;;;14.94;100.00
47753;BME280;2038;51.728;6.674;2023-05-23T08:08:23;101390.22;;;14.93;100.00
47753;BME280;2038;51.728;6.674;2023-05-23T08:10:49;101394.66;;;14.95;100.00
47753;BME280;2038;51.728;6.674;2023-05-23T08:13:16;101397.22;;;14.95;100.00
47753;BME280;2038;51.728;6.674;2023-05-23T08:15:43;101404.31;;;14.99;100.00
47753;BME280;2038;51.728;6.674;2023-05-23T08:18:09;101404.31;;;14.99;100.00
47753;BME280;2038;51.728;6.674;2023-05-23T08:20:36;101413.06;;;15.03;100.00
47753;BME280;2038;51.728;6.674;2023-05-23T08:23:02;101407.66;;;14.98;100.00
47753;BME280;2038;51.728;6.674;2023-05-23T08:25:29;101413.88;;;14.87;100.00
47753;BME280;2038;51.728;6.674;2023-05-23T08:27:59;101415.38;;;14.84;100.00
47753;BME280;2038;51.728;6.674;2023-05-23T08:30:27;101425.03;;;14.88;100.00
47753;BME280;2038;51.728;6.674;2023-05-23T08:32:55;101424.41;;;14.92;100.00
47753;BME280;2038;51.728;6.674;2023-05-23T08:35:21;101431.56;;;14.97;100.00
47753;BME280;2038;51.728;6.674;2023-05-23T08:37:48;101437.84;;;14.88;100.00
47753;BME280;2038;51.728;6.674;2023-05-23T08:40:19;101437.56;;;14.83;100.00
47753;BME280;2038;51.728;6.674;2023-05-23T08:42:47;101430.56;;;14.81;100.00
47753;BME280;2038;51.728;6.674;2023-05-23T08:45:16;101432.22;;;14.66;100.00
47753;BME280;2038;51.728;6.674;2023-05-23T08:47:43;101440.19;;;14.70;100.00
47753;BME280;2038;51.728;6.674;2023-05-23T08:50:20;101438.25;;;14.66;100.00
47753;BME280;2038;51.728;6.674;2023-05-23T08:52:59;101453.28;;;14.60;100.00
47753;BME280;2038;51.728;6.674;2023-05-23T08:55:27;101442.50;;;14.66;100.00
47753;BME280;2038;51.728;6.674;2023-05-23T08:57:56;101449.25;;;14.93;100.00
47753;BME280;2038;51.728;6.674;2023-05-23T09:00:27;101447.41;;;14.90;100.00
47753;BME280;2038;51.728;6.674;2023-05-23T09:02:53;101450.25;;;14.80;100.00
47753;BME280;2038;51.728;6.674;2023-05-23T09:05:20;101457.22;;;14.97;100.00
47753;BME280;2038;51.728;6.674;2023-05-23T09:07:47;101456.44;;;15.13;100.00
47753;BME280;2038;51.728;6.674;2023-05-23T09:10:14;101462.22;;;15.38;100.00
47753;BME280;2038;51.728;6.674;2023-05-23T09:12:45;101461.84;;;15.62;100.00
47753;BME280;2038;51.728;6.674;2023-05-23T09:15:11;101459.66;;;15.68;100.00
47753;BME280;2038;51.728;6.674;2023-05-23T09:17:38;101463.09;;;15.99;100.00
47753;BME280;2038;51.728;6.674;2023-05-23T09:20:15;101468.59;;;16.21;100.00
47753;BME280;2038;51.728;6.674;2023-05-23T09:22:46;101473.28;;;16.12;96.87
47753;BME280;2038;51.728;6.674;2023-05-23T09:25:13;101466.19;;;16.08;98.22
47753;BME280;2038;51.728;6.674;2023-05-23T09:27:41;101459.78;;;16.16;97.36
47753;BME280;2038;51.728;6.674;2023-05-23T09:30:09;101471.41;;;16.10;95.50
47753;BME280;2038;51.728;6.674;2023-05-23T09:32:37;101467.72;;;16.21;96.23
47753;BME280;2038;51.728;6.674;2023-05-23T09:35:05;101471.28;;;16.23;95.43
47753;BME280;2038;51.728;6.674;2023-05-23T09:37:42;101463.00;;;16.28;96.75
47753;BME280;2038;51.728;6.674;2023-05-23T09:40:14;101470.97;;;16.49;95.49
47753;BME280;2038;51.728;6.674;2023-05-23T09:42:47;101470.91;;;16.48;95.15
47753;BME280;2038;51.728;6.674;2023-05-23T09:45:16;101473.97;;;16.41;96.55
47753;BME280;2038;51.728;6.674;2023-05-23T09:47:49;101471.59;;;16.45;96.24
47753;BME280;2038;51.728;6.674;2023-05-23T09:50:16;101475.88;;;16.45;96.86
47753;BME280;2038;51.728;6.674;2023-05-23T09:52:43;101473.31;;;16.45;96.27
47753;BME280;2038;51.728;6.674;2023-05-23T09:55:10;101478.03;;;16.53;94.92
47753;BME280;2038;51.728;6.674;2023-05-23T09:57:39;101476.00;;;16.62;96.27
47753;BME280;2038;51.728;6.674;2023-05-23T10:00:08;101485.75;;;16.68;96.18
47753;BME280;2038;51.728;6.674;2023-05-23T10:03:12;101480.50;;;16.66;94.54
47753;BME280;2038;51.728;6.674;2023-05-23T10:05:49;101485.16;;;16.73;94.47
47753;BME280;2038;51.728;6.674;2023-05-23T10:08:24;101490.88;;;16.68;95.21
47753;BME280;2038;51.728;6.674;2023-05-23T10:11:28;101492.06;;;16.58;93.76
47753;BME280;2038;51.728;6.674;2023-05-23T10:14:06;101485.84;;;16.55;93.46
47753;BME280;2038;51.728;6.674;2023-05-23T10:17:10;101494.66;;;16.58;94.80
47753;BME280;2038;51.728;6.674;2023-05-23T10:19:47;101495.53;;;16.59;94.18
47753;BME280;2038;51.728;6.674;2023-05-23T10:22:23;101492.16;;;16.76;94.29
47753;BME280;2038;51.728;6.674;2023-05-23T10:24:50;101487.81;;;16.91;92.70
47753;BME280;2038;51.728;6.674;2023-05-23T10:27:18;101488.72;;;17.09;92.75
47753;BME280;2038;51.728;6.674;2023-05-23T10:29:44;101485.97;;;17.22;92.88
47753;BME280;2038;51.728;6.674;2023-05-23T10:32:12;101484.66;;;17.30;89.90
47753;BME280;2038;51.728;6.674;2023-05-23T10:34:55;101492.03;;;17.23;90.35
47753;BME280;2038;51.728;6.674;2023-05-23T10:42:53;101492.31;;;17.45;92.80
47753;BME280;2038;51.728;6.674;2023-05-23T10:45:26;101500.22;;;17.50;91.74
47753;BME280;2038;51.728;6.674;2023-05-23T10:47:52;101498.81;;;17.39;89.75
47753;BME280;2038;51.728;6.674;2023-05-23T10:50:35;101501.34;;;17.37;90.10
47753;BME280;2038;51.728;6.674;2023-05-23T10:53:03;101493.09;;;17.44;91.99
47753;BME280;2038;51.728;6.674;2023-05-23T10:55:32;101496.84;;;17.51;92.62
47753;BME280;2038;51.728;6.674;2023-05-23T10:58:19;101499.44;;;17.51;91.50
47753;BME280;2038;51.728;6.674;2023-05-23T11:01:00;101504.69;;;17.52;88.17
47753;BME280;2038;51.728;6.674;2023-05-23T11:06:32;101496.75;;;17.65;88.89
47753;BME280;2038;51.728;6.674;2023-05-23T11:09:05;101495.72;;;17.80;90.28
47753;BME280;2038;51.728;6.674;2023-05-23T11:17:14;101509.72;;;17.67;82.88
47753;BME280;2038;51.728;6.674;2023-05-23T11:19:57;101505.31;;;17.64;83.84
47753;BME280;2038;51.728;6.674;2023-05-23T11:22:29;101509.09;;;17.55;87.30
47753;BME280;2038;51.728;6.674;2023-05-23T11:24:57;101509.25;;;17.58;88.80
47753;BME280;2038;51.728;6.674;2023-05-23T11:27:35;101510.53;;;17.50;84.03
47753;BME280;2038;51.728;6.674;2023-05-23T11:30:13;101526.00;;;17.50;86.02
47753;BME280;2038;51.728;6.674;2023-05-23T11:32:41;101511.94;;;17.43;84.55
47753;BME280;2038;51.728;6.674;2023-05-23T11:35:15;101513.13;;;17.50;85.30
47753;BME280;2038;51.728;6.674;2023-05-23T11:37:43;101511.41;;;17.33;82.42
47753;BME280;2038;51.728;6.674;2023-05-23T11:40:30;101507.91;;;17.14;82.62
47753;BME280;2038;51.728;6.674;2023-05-23T11:42:57;101514.47;;;17.25;83.22
47753;BME280;2038;51.728;6.674;2023-05-23T11:45:25;101513.81;;;17.29;85.04
47753;BME280;2038;51.728;6.674;2023-05-23T11:47:52;101521.72;;;17.33;86.15
47753;BME280;2038;51.728;6.674;2023-05-23T11:50:18;101514.47;;;17.25;86.11
47753;BME280;2038;51.728;6.674;2023-05-23T11:52:49;101520.66;;;17.45;86.42
47753;BME280;2038;51.728;6.674;2023-05-23T11:55:22;101507.88;;;17.64;87.42
47753;BME280;2038;51.728;6.674;2023-05-23T11:57:49;101520.63;;;17.79;83.05
47753;BME280;2038;51.728;6.674;2023-05-23T12:00:17;101515.44;;;17.61;78.91
47753;BME280;2038;51.728;6.674;2023-05-23T12:02:45;101513.34;;;17.54;81.77
47753;BME280;2038;51.728;6.674;2023-05-23T12:05:14;101515.22;;;17.57;81.03
47753;BME280;2038;51.728;6.674;2023-05-23T12:07:48;101510.16;;;17.58;80.21
47753;BME280;2038;51.728;6.674;2023-05-23T12:10:15;101519.16;;;17.50;80.45
47753;BME280;2038;51.728;6.674;2023-05-23T12:12:43;101502.50;;;17.60;83.55
47753;BME280;2038;51.728;6.674;2023-05-23T12:15:10;101506.25;;;17.66;82.53
47753;BME280;2038;51.728;6.674;2023-05-23T12:17:38;101509.88;;;17.70;81.39
47753;BME280;2038;51.728;6.674;2023-05-23T12:20:10;101499.84;;;17.94;84.46
47753;BME280;2038;51.728;6.674;2023-05-23T12:22:37;101502.50;;;18.13;82.54
47753;BME280;2038;51.728;6.674;2023-05-23T12:25:06;101504.97;;;18.29;83.39
47753;BME280;2038;51.728;6.674;2023-05-23T12:27:34;101504.13;;;18.48;83.81
47753;BME280;2038;51.728;6.674;2023-05-23T12:30:13;101507.53;;;18.66;81.83
47753;BME280;2038;51.728;6.674;2023-05-23T12:32:45;101513.25;;;18.78;80.42
47753;BME280;2038;51.728;6.674;2023-05-23T12:35:13;101502.44;;;18.87;82.15
47753;BME280;2038;51.728;6.674;2023-05-23T12:37:44;101509.47;;;18.89;77.17
47753;BME280;2038;51.728;6.674;2023-05-23T12:40:14;101501.78;;;18.91;76.38
47753;BME280;2038;51.728;6.674;2023-05-23T12:45:21;101510.06;;;19.03;78.05
47753;BME280;2038;51.728;6.674;2023-05-23T12:48:02;101513.53;;;18.84;74.19
47753;BME280;2038;51.728;6.674;2023-05-23T12:50:29;101520.66;;;18.70;74.99
47753;BME280;2038;51.728;6.674;2023-05-23T12:52:57;101512.88;;;18.69;74.92
47753;BME280;2038;51.728;6.674;2023-05-23T12:55:23;101519.66;;;18.67;73.58
47753;BME280;2038;51.728;6.674;2023-05-23T12:57:50;101509.06;;;18.61;76.65
47753;BME280;2038;51.728;6.674;2023-05-23T13:00:16;101512.09;;;18.52;74.97
47753;BME280;2038;51.728;6.674;2023-05-23T13:02:44;101521.16;;;18.44;76.34
47753;BME280;2038;51.728;6.674;2023-05-23T13:05:10;101510.88;;;18.46;77.09
47753;BME280;2038;51.728;6.674;2023-05-23T13:07:37;101519.53;;;18.46;76.54
47753;BME280;2038;51.728;6.674;2023-05-23T13:10:03;101515.25;;;18.64;77.37
47753;BME280;2038;51.728;6.674;2023-05-23T13:12:30;101521.44;;;18.68;76.46
47753;BME280;2038;51.728;6.674;2023-05-23T13:14:57;101523.25;;;18.70;76.71
47753;BME280;2038;51.728;6.674;2023-05-23T13:17:24;101526.13;;;18.77;75.91
47753;BME280;2038;51.728;6.674;2023-05-23T13:19:50;101525.44;;;18.81;75.99
47753;BME280;2038;51.728;6.674;2023-05-23T13:22:16;101530.75;;;18.84;75.46
47753;BME280;2038;51.728;6.674;2023-05-23T13:24:42;101530.41;;;18.76;72.91